sensor_id;sensor_type;location;lat;lon;timestamp;pressure;altitude;pressure_sealevel;temperature;humidity
78016;BME280;67223;51.102;5.882;2023-01-23T00:01:02;103221.22;;;15.37;47.93
78016;BME280;67223;51.102;5.882;2023-01-23T00:03:28;103217.75;;;15.35;48.38
78016;BME280;67223;51.102;5.882;2023-01-23T00:06:07;103218.69;;;15.34;48.28
78016;BME280;67223;51.102;5.882;2023-01-23T00:08:34;103221.41;;;15.34;47.68
78016;BME280;67223;51.102;5.882;2023-01-23T00:11:03;103222.38;;;15.33;47.94
78016;BME280;67223;51.102;5.882;2023-01-23T00:13:30;103217.19;;;15.30;48.10
78016;BME280;67223;51.102;5.882;2023-01-23T00:15:56;103227.94;;;15.30;48.57
78016;BME280;67223;51.102;5.882;2023-01-23T00:18:21;103237.84;;;15.30;48.31
78016;BME280;67223;51.102;5.882;2023-01-23T00:20:47;103242.47;;;15.28;48.44
78016;BME280;67223;51.102;5.882;2023-01-23T00:23:12;103247.00;;;15.27;47.96
78016;BME280;67223;51.102;5.882;2023-01-23T00:25:38;103243.44;;;15.27;48.07
78016;BME280;67223;51.102;5.882;2023-01-23T00:28:04;103243.53;;;15.25;47.95
78016;BME280;67223;51.102;5.882;2023-01-23T00:30:30;103249.84;;;15.24;48.61
78016;BME280;67223;51.102;5.882;2023-01-23T00:32:55;103238.34;;;15.22;48.49
78016;BME280;67223;51.102;5.882;2023-01-23T00:35:21;103239.28;;;15.21;47.97
78016;BME280;67223;51.102;5.882;2023-01-23T00:37:47;103242.94;;;15.20;48.72
78016;BME280;67223;51.102;5.882;2023-01-23T00:40:12;103246.63;;;15.19;48.07
78016;BME280;67223;51.102;5.882;2023-01-23T00:42:38;103242.19;;;15.18;48.31
78016;BME280;67223;51.102;5.882;2023-01-23T00:45:04;103250.28;;;15.18;48.19
78016;BME280;67223;51.102;5.882;2023-01-23T00:47:30;103246.78;;;15.16;48.18
78016;BME280;67223;51.102;5.882;2023-01-23T00:49:55;103242.47;;;15.14;48.11
78016;BME280;67223;51.102;5.882;2023-01-23T00:52:23;103240.66;;;15.14;48.40
78016;BME280;67223;51.102;5.882;2023-01-23T00:54:49;103242.56;;;15.12;48.46
78016;BME280;67223;51.102;5.882;2023-01-23T00:57:14;103243.53;;;15.11;48.52
78016;BME280;67223;51.102;5.882;2023-01-23T00:59:40;103245.34;;;15.11;48.68
78016;BME280;67223;51.102;5.882;2023-01-23T01:02:05;103249.97;;;15.08;48.69
78016;BME280;67223;51.102;5.882;2023-01-23T01:04:31;103241.13;;;15.06;48.15
78016;BME280;67223;51.102;5.882;2023-01-23T01:06:57;103251.88;;;15.06;48.30
78016;BME280;67223;51.102;5.882;2023-01-23T01:09:22;103256.41;;;15.06;48.40
78016;BME280;67223;51.102;5.882;2023-01-23T01:11:49;103250.16;;;15.05;48.31
78016;BME280;67223;51.102;5.882;2023-01-23T01:14:15;103258.34;;;15.04;48.17
78016;BME280;67223;51.102;5.882;2023-01-23T01:16:40;103256.59;;;15.03;48.42
78016;BME280;67223;51.102;5.882;2023-01-23T01:19:10;103265.63;;;15.02;48.19
78016;BME280;67223;51.102;5.882;2023-01-23T01:21:36;103273.69;;;15.02;48.28
78016;BME280;67223;51.102;5.882;2023-01-23T01:24:03;103271.00;;;15.02;48.25
78016;BME280;67223;51.102;5.882;2023-01-23T01:26:28;103263.13;;;14.99;48.05
78016;BME280;67223;51.102;5.882;2023-01-23T01:28:54;103264.97;;;14.98;48.63
78016;BME280;67223;51.102;5.882;2023-01-23T01:31:19;103277.53;;;14.98;48.42
78016;BME280;67223;51.102;5.882;2023-01-23T01:33:45;103275.81;;;14.97;47.93
78016;BME280;67223;51.102;5.882;2023-01-23T01:36:16;103268.69;;;14.96;48.38
78016;BME280;67223;51.102;5.882;2023-01-23T01:38:43;103265.25;;;14.94;48.56
78016;BME280;67223;51.102;5.882;2023-01-23T01:41:09;103275.03;;;14.95;48.36
78016;BME280;67223;51.102;5.882;2023-01-23T01:43:35;103267.06;;;14.93;48.53
78016;BME280;67223;51.102;5.882;2023-01-23T01:46:12;103268.03;;;14.92;48.20
78016;BME280;67223;51.102;5.882;2023-01-23T01:51:32;103259.16;;;14.90;48.68
78016;BME280;67223;51.102;5.882;2023-01-23T01:54:24;103258.28;;;14.90;48.22
78016;BME280;67223;51.102;5.882;2023-01-23T01:57:07;103260.22;;;14.88;48.39
78016;BME280;67223;51.102;5.882;2023-01-23T01:59:40;103261.19;;;14.87;48.67
78016;BME280;67223;51.102;5.882;2023-01-23T02:02:18;103271.94;;;14.87;48.30
78016;BME280;67223;51.102;5.882;2023-01-23T02:04:48;103263.00;;;14.86;48.18
78016;BME280;67223;51.102;5.882;2023-01-23T02:07:21;103263.09;;;14.85;48.29
78016;BME280;67223;51.102;5.882;2023-01-23T02:09:48;103260.50;;;14.83;47.93
78016;BME280;67223;51.102;5.882;2023-01-23T02:12:14;103258.69;;;14.84;47.94
78016;BME280;67223;51.102;5.882;2023-01-23T02:14:39;103262.34;;;14.83;48.94
78016;BME280;67223;51.102;5.882;2023-01-23T02:17:06;103262.41;;;14.81;48.14
78016;BME280;67223;51.102;5.882;2023-01-23T02:27:38;103244.66;;;14.79;48.49
78016;BME280;67223;51.102;5.882;2023-01-23T02:30:04;103247.50;;;14.76;48.80
78016;BME280;67223;51.102;5.882;2023-01-23T02:32:32;103242.06;;;14.77;48.35
78016;BME280;67223;51.102;5.882;2023-01-23T02:35:00;103239.44;;;14.76;48.58
78016;BME280;67223;51.102;5.882;2023-01-23T02:37:31;103252.03;;;14.75;48.53
78016;BME280;67223;51.102;5.882;2023-01-23T02:39:58;103248.47;;;14.75;48.35
78016;BME280;67223;51.102;5.882;2023-01-23T02:42:27;103254.81;;;14.74;48.55
78016;BME280;67223;51.102;5.882;2023-01-23T02:44:53;103254.81;;;14.74;48.76
78016;BME280;67223;51.102;5.882;2023-01-23T02:47:20;103254.03;;;14.72;48.38
78016;BME280;67223;51.102;5.882;2023-01-23T02:49:45;103256.72;;;14.72;48.72
78016;BME280;67223;51.102;5.882;2023-01-23T02:52:11;103251.44;;;14.70;49.12
78016;BME280;67223;51.102;5.882;2023-01-23T02:54:37;103247.88;;;14.70;48.58
78016;BME280;67223;51.102;5.882;2023-01-23T02:57:03;103245.31;;;14.68;48.43
78016;BME280;67223;51.102;5.882;2023-01-23T02:59:29;103256.06;;;14.68;48.62
78016;BME280;67223;51.102;5.882;2023-01-23T03:04:48;103256.06;;;14.68;48.79
78016;BME280;67223;51.102;5.882;2023-01-23T03:07:13;103257.00;;;14.67;48.99
78016;BME280;67223;51.102;5.882;2023-01-23T03:09:39;103250.75;;;14.67;48.42
78016;BME280;67223;51.102;5.882;2023-01-23T03:12:06;103250.75;;;14.67;48.44
78016;BME280;67223;51.102;5.882;2023-01-23T03:14:33;103249.97;;;14.64;49.07
78016;BME280;67223;51.102;5.882;2023-01-23T03:16:59;103252.78;;;14.63;48.47
78016;BME280;67223;51.102;5.882;2023-01-23T03:19:25;103258.25;;;14.61;48.65
78016;BME280;67223;51.102;5.882;2023-01-23T03:21:52;103251.91;;;14.62;48.61
78016;BME280;67223;51.102;5.882;2023-01-23T03:24:18;103257.28;;;14.62;48.58
78016;BME280;67223;51.102;5.882;2023-01-23T03:26:46;103262.66;;;14.62;48.34
78016;BME280;67223;51.102;5.882;2023-01-23T03:29:20;103269.00;;;14.61;48.50
78016;BME280;67223;51.102;5.882;2023-01-23T03:32:05;103269.94;;;14.60;48.82
78016;BME280;67223;51.102;5.882;2023-01-23T03:34:31;103261.13;;;14.58;48.33
78016;BME280;67223;51.102;5.882;2023-01-23T03:36:57;103264.69;;;14.59;48.61
78016;BME280;67223;51.102;5.882;2023-01-23T03:39:22;103250.44;;;14.57;48.39
78016;BME280;67223;51.102;5.882;2023-01-23T03:42:06;103264.78;;;14.57;48.89
78016;BME280;67223;51.102;5.882;2023-01-23T03:44:31;103260.34;;;14.56;48.96
78016;BME280;67223;51.102;5.882;2023-01-23T03:46:57;103260.34;;;14.56;48.61
78016;BME280;67223;51.102;5.882;2023-01-23T03:49:22;103257.66;;;14.56;48.61
78016;BME280;67223;51.102;5.882;2023-01-23T03:51:48;103260.41;;;14.55;49.05
78016;BME280;67223;51.102;5.882;2023-01-23T03:54:13;103259.59;;;14.54;48.98
78016;BME280;67223;51.102;5.882;2023-01-23T03:56:40;103257.84;;;14.53;48.86
78016;BME280;67223;51.102;5.882;2023-01-23T03:59:07;103253.34;;;14.54;48.89
78016;BME280;67223;51.102;5.882;2023-01-23T04:01:32;103248.03;;;14.52;49.09
78016;BME280;67223;51.102;5.882;2023-01-23T04:03:58;103253.50;;;14.51;48.76
78016;BME280;67223;51.102;5.882;2023-01-23T04:06:24;103249.94;;;14.50;48.73
78016;BME280;67223;51.102;5.882;2023-01-23T04:08:49;103249.00;;;14.51;48.85
78016;BME280;67223;51.102;5.882;2023-01-23T04:11:15;103239.19;;;14.50;48.48
78016;BME280;67223;51.102;5.882;2023-01-23T04:13:40;103244.69;;;14.49;49.20
78016;BME280;67223;51.102;5.882;2023-01-23T04:16:06;103248.25;;;14.49;49.24
78016;BME280;67223;51.102;5.882;2023-01-23T04:18:32;103245.63;;;14.48;48.63
78016;BME280;67223;51.102;5.882;2023-01-23T04:20:58;103244.75;;;14.47;48.80
78016;BME280;67223;51.102;5.882;2023-01-23T04:23:24;103248.41;;;14.46;49.06
78016;BME280;67223;51.102;5.882;2023-01-23T04:25:50;103247.53;;;14.46;48.56
78016;BME280;67223;51.102;5.882;2023-01-23T04:28:16;103251.09;;;14.46;49.03
78016;BME280;67223;51.102;5.882;2023-01-23T04:30:42;103253.03;;;14.44;48.95
78016;BME280;67223;51.102;5.882;2023-01-23T04:33:07;103251.28;;;14.43;49.04
78016;BME280;67223;51.102;5.882;2023-01-23T04:35:33;103261.09;;;14.44;48.80
78016;BME280;67223;51.102;5.882;2023-01-23T04:37:58;103264.81;;;14.42;48.76
78016;BME280;67223;51.102;5.882;2023-01-23T04:40:24;103264.72;;;14.43;48.54
78016;BME280;67223;51.102;5.882;2023-01-23T04:42:49;103265.69;;;14.42;49.21
78016;BME280;67223;51.102;5.882;2023-01-23T04:45:15;103264.88;;;14.40;49.05
78016;BME280;67223;51.102;5.882;2023-01-23T04:47:40;103271.25;;;14.39;49.03
78016;BME280;67223;51.102;5.882;2023-01-23T04:50:06;103261.34;;;14.40;49.18
78016;BME280;67223;51.102;5.882;2023-01-23T04:52:31;103265.88;;;14.39;48.89
78016;BME280;67223;51.102;5.882;2023-01-23T04:54:57;103269.41;;;14.40;48.98
78016;BME280;67223;51.102;5.882;2023-01-23T04:57:23;103273.06;;;14.39;48.85
78016;BME280;67223;51.102;5.882;2023-01-23T04:59:49;103274.00;;;14.38;48.73
78016;BME280;67223;51.102;5.882;2023-01-23T05:02:15;103274.97;;;14.37;48.58
78016;BME280;67223;51.102;5.882;2023-01-23T05:04:40;103287.53;;;14.36;48.95
78016;BME280;67223;51.102;5.882;2023-01-23T05:07:05;103288.44;;;14.35;48.99
78016;BME280;67223;51.102;5.882;2023-01-23T05:09:33;103296.47;;;14.37;48.87
78016;BME280;67223;51.102;5.882;2023-01-23T05:11:59;103302.75;;;14.36;49.13
78016;BME280;67223;51.102;5.882;2023-01-23T05:14:24;103301.88;;;14.35;49.09
78016;BME280;67223;51.102;5.882;2023-01-23T05:16:49;103296.63;;;14.34;48.87
78016;BME280;67223;51.102;5.882;2023-01-23T05:19:15;103299.31;;;14.34;49.09
78016;BME280;67223;51.102;5.882;2023-01-23T05:21:40;103299.31;;;14.34;48.93
78016;BME280;67223;51.102;5.882;2023-01-23T05:24:06;103295.75;;;14.33;49.15
78016;BME280;67223;51.102;5.882;2023-01-23T05:26:32;103300.25;;;14.33;48.65
78016;BME280;67223;51.102;5.882;2023-01-23T05:28:59;103296.78;;;14.31;48.98
78016;BME280;67223;51.102;5.882;2023-01-23T05:31:25;103295.91;;;14.30;48.64
78016;BME280;67223;51.102;5.882;2023-01-23T05:33:50;103291.53;;;14.29;48.65
78016;BME280;67223;51.102;5.882;2023-01-23T05:36:16;103290.66;;;14.29;49.25
78016;BME280;67223;51.102;5.882;2023-01-23T05:38:41;103289.66;;;14.30;49.21
78016;BME280;67223;51.102;5.882;2023-01-23T05:41:07;103294.22;;;14.29;48.63
78016;BME280;67223;51.102;5.882;2023-01-23T05:43:32;103298.59;;;14.30;49.25
78016;BME280;67223;51.102;5.882;2023-01-23T05:46:01;103293.34;;;14.29;49.24
78016;BME280;67223;51.102;5.882;2023-01-23T05:48:27;103299.59;;;14.29;49.10
78016;BME280;67223;51.102;5.882;2023-01-23T05:50:53;103300.53;;;14.28;48.72
78016;BME280;67223;51.102;5.882;2023-01-23T05:53:18;103302.28;;;14.29;49.03
78016;BME280;67223;51.102;5.882;2023-01-23T05:55:43;103301.88;;;14.35;49.31
78016;BME280;67223;51.102;5.882;2023-01-23T05:58:09;103296.47;;;14.37;49.53
78016;BME280;67223;51.102;5.882;2023-01-23T06:00:34;103304.56;;;14.35;49.92
78016;BME280;67223;51.102;5.882;2023-01-23T06:03:00;103304.53;;;14.37;49.43
78016;BME280;67223;51.102;5.882;2023-01-23T06:05:26;103306.34;;;14.36;49.75
78016;BME280;67223;51.102;5.882;2023-01-23T06:07:51;103308.13;;;14.36;50.12
78016;BME280;67223;51.102;5.882;2023-01-23T06:10:17;103309.97;;;14.35;50.04
78016;BME280;67223;51.102;5.882;2023-01-23T06:12:42;103307.16;;;14.38;49.50
78016;BME280;67223;51.102;5.882;2023-01-23T06:15:08;103303.41;;;14.41;49.26
78016;BME280;67223;51.102;5.882;2023-01-23T06:17:34;103309.91;;;14.37;49.65
78016;BME280;67223;51.102;5.882;2023-01-23T06:19:59;103309.28;;;14.32;50.26
78016;BME280;67223;51.102;5.882;2023-01-23T06:22:25;103312.75;;;14.34;51.33
78016;BME280;67223;51.102;5.882;2023-01-23T06:24:50;103321.78;;;14.33;50.90
78016;BME280;67223;51.102;5.882;2023-01-23T06:27:17;103320.09;;;14.30;51.73
78016;BME280;67223;51.102;5.882;2023-01-23T06:29:42;103327.06;;;14.34;52.20
78016;BME280;67223;51.102;5.882;2023-01-23T18:52:08;103504.09;;;16.65;52.62
78016;BME280;67223;51.102;5.882;2023-01-23T19:07:39;103511.69;;;15.87;55.60
78016;BME280;67223;51.102;5.882;2023-01-23T19:10:06;103509.75;;;15.89;55.42
78016;BME280;67223;51.102;5.882;2023-01-23T19:12:36;103509.09;;;15.86;56.46
78016;BME280;67223;51.102;5.882;2023-01-23T19:20:50;103517.75;;;15.77;56.26
78016;BME280;67223;51.102;5.882;2023-01-23T19:25:57;103528.72;;;15.74;56.34
78016;BME280;67223;51.102;5.882;2023-01-23T19:28:23;103519.47;;;15.78;55.73
78016;BME280;67223;51.102;5.882;2023-01-23T19:30:49;103519.75;;;15.73;56.63
78016;BME280;67223;51.102;5.882;2023-01-23T19:33:16;103525.81;;;15.77;55.08
78016;BME280;67223;51.102;5.882;2023-01-23T19:35:42;103524.31;;;15.87;54.81
78016;BME280;67223;51.102;5.882;2023-01-23T19:38:08;103527.66;;;15.90;54.37
78016;BME280;67223;51.102;5.882;2023-01-23T19:40:33;103525.19;;;15.87;54.67
78016;BME280;67223;51.102;5.882;2023-01-23T19:42:59;103530.53;;;15.73;54.59
78016;BME280;67223;51.102;5.882;2023-01-23T19:45:24;103535.03;;;15.59;55.72
78016;BME280;67223;51.102;5.882;2023-01-23T19:47:50;103533.28;;;15.58;54.74
78016;BME280;67223;51.102;5.882;2023-01-23T19:50:17;103545.44;;;15.49;56.17
78016;BME280;67223;51.102;5.882;2023-01-23T19:52:44;103537.59;;;15.44;56.27
78016;BME280;67223;51.102;5.882;2023-01-23T19:55:23;103545.53;;;15.47;55.28
78016;BME280;67223;51.102;5.882;2023-01-23T19:57:49;103539.53;;;15.42;55.83
78016;BME280;67223;51.102;5.882;2023-01-23T20:00:15;103546.06;;;15.38;55.72
78016;BME280;67223;51.102;5.882;2023-01-23T20:02:42;103545.09;;;15.39;55.80
78016;BME280;67223;51.102;5.882;2023-01-23T20:05:08;103542.50;;;15.38;55.76
78016;BME280;67223;51.102;5.882;2023-01-23T20:07:33;103544.59;;;15.33;56.09
78016;BME280;67223;51.102;5.882;2023-01-23T20:09:59;103544.88;;;15.28;56.11
78016;BME280;67223;51.102;5.882;2023-01-23T20:12:24;103544.34;;;15.22;55.82
78016;BME280;67223;51.102;5.882;2023-01-23T20:14:50;103550.59;;;15.22;55.87
78016;BME280;67223;51.102;5.882;2023-01-23T20:17:15;103542.63;;;15.21;56.19
78016;BME280;67223;51.102;5.882;2023-01-23T20:19:41;103544.09;;;15.26;55.40
78016;BME280;67223;51.102;5.882;2023-01-23T20:22:06;103543.41;;;15.23;56.25
78016;BME280;67223;51.102;5.882;2023-01-23T20:24:32;103542.41;;;15.39;55.74
78016;BME280;67223;51.102;5.882;2023-01-23T20:26:57;103551.63;;;15.35;55.51
78016;BME280;67223;51.102;5.882;2023-01-23T20:29:22;103556.06;;;15.36;55.48
78016;BME280;67223;51.102;5.882;2023-01-23T20:31:48;103553.56;;;15.33;55.22
78016;BME280;67223;51.102;5.882;2023-01-23T20:34:15;103549.53;;;15.25;55.56
78016;BME280;67223;51.102;5.882;2023-01-23T20:36:41;103541.66;;;15.22;55.94
78016;BME280;67223;51.102;5.882;2023-01-23T20:39:06;103552.63;;;15.19;55.66
78016;BME280;67223;51.102;5.882;2023-01-23T20:41:32;103554.78;;;15.12;56.90
78016;BME280;67223;51.102;5.882;2023-01-23T20:43:58;103553.91;;;15.12;56.53
78016;BME280;67223;51.102;5.882;2023-01-23T20:46:26;103547.41;;;15.00;56.85
78016;BME280;67223;51.102;5.882;2023-01-23T20:48:51;103549.31;;;14.98;57.11
78016;BME280;67223;51.102;5.882;2023-01-23T20:51:18;103554.25;;;14.90;56.72
78016;BME280;67223;51.102;5.882;2023-01-23T20:53:43;103550.72;;;14.89;56.64
78016;BME280;67223;51.102;5.882;2023-01-23T20:58:38;103532.72;;;14.90;56.85
78016;BME280;67223;51.102;5.882;2023-01-23T21:01:26;103546.38;;;14.87;56.69
78016;BME280;67223;51.102;5.882;2023-01-23T21:03:51;103541.19;;;14.84;56.74
78016;BME280;67223;51.102;5.882;2023-01-23T21:06:17;103542.47;;;14.77;57.10
78016;BME280;67223;51.102;5.882;2023-01-23T21:08:44;103535.19;;;14.79;56.27
78016;BME280;67223;51.102;5.882;2023-01-23T21:11:17;103551.66;;;14.73;57.25
78016;BME280;67223;51.102;5.882;2023-01-23T21:13:49;103548.97;;;14.73;57.16
78016;BME280;67223;51.102;5.882;2023-01-23T21:16:15;103542.28;;;14.64;57.67
78016;BME280;67223;51.102;5.882;2023-01-23T21:18:43;103545.06;;;14.62;57.23
78016;BME280;67223;51.102;5.882;2023-01-23T21:21:20;103550.50;;;14.61;57.43
78016;BME280;67223;51.102;5.882;2023-01-23T21:23:47;103552.44;;;14.59;57.18
78016;BME280;67223;51.102;5.882;2023-01-23T21:26:19;103547.13;;;14.57;57.40
78016;BME280;67223;51.102;5.882;2023-01-23T21:28:46;103551.91;;;14.52;57.45
78016;BME280;67223;51.102;5.882;2023-01-23T21:31:31;103546.59;;;14.51;57.50
78016;BME280;67223;51.102;5.882;2023-01-23T21:34:02;103551.34;;;14.46;57.30
78016;BME280;67223;51.102;5.882;2023-01-23T21:36:28;103547.03;;;14.43;56.95
78016;BME280;67223;51.102;5.882;2023-01-23T21:38:54;103545.34;;;14.41;57.79
78016;BME280;67223;51.102;5.882;2023-01-23T21:41:19;103543.63;;;14.40;57.55
78016;BME280;67223;51.102;5.882;2023-01-23T21:43:45;103544.66;;;14.37;57.40
78016;BME280;67223;51.102;5.882;2023-01-23T21:46:11;103543.84;;;14.35;57.18
78016;BME280;67223;51.102;5.882;2023-01-23T21:48:37;103542.28;;;14.31;57.01
78016;BME280;67223;51.102;5.882;2023-01-23T21:51:16;103550.50;;;14.28;56.85
78016;BME280;67223;51.102;5.882;2023-01-23T21:53:43;103553.19;;;14.28;57.14
78016;BME280;67223;51.102;5.882;2023-01-23T21:56:11;103551.47;;;14.27;57.33
78016;BME280;67223;51.102;5.882;2023-01-23T21:58:37;103553.44;;;14.23;57.35
78016;BME280;67223;51.102;5.882;2023-01-23T22:01:05;103555.34;;;14.21;57.33
78016;BME280;67223;51.102;5.882;2023-01-23T22:03:50;103550.91;;;14.20;57.13
78016;BME280;67223;51.102;5.882;2023-01-23T22:06:16;103552.09;;;14.15;57.24
78016;BME280;67223;51.102;5.882;2023-01-23T22:08:42;103546.72;;;14.15;57.27
78016;BME280;67223;51.102;5.882;2023-01-23T22:11:09;103551.25;;;14.14;57.10
78016;BME280;67223;51.102;5.882;2023-01-23T22:13:35;103551.41;;;14.11;57.14
78016;BME280;67223;51.102;5.882;2023-01-23T22:16:01;103547.06;;;14.09;57.13
78016;BME280;67223;51.102;5.882;2023-01-23T22:18:27;103537.28;;;14.08;57.21
78016;BME280;67223;51.102;5.882;2023-01-23T22:20:57;103538.38;;;14.04;57.04
78016;BME280;67223;51.102;5.882;2023-01-23T22:23:24;103542.88;;;14.03;57.21
78016;BME280;67223;51.102;5.882;2023-01-23T22:25:50;103546.44;;;14.04;57.07
78016;BME280;67223;51.102;5.882;2023-01-23T22:28:19;103542.16;;;14.00;57.10
78016;BME280;67223;51.102;5.882;2023-01-23T22:30:44;103544.78;;;14.01;57.06
78016;BME280;67223;51.102;5.882;2023-01-23T22:33:10;103544.84;;;14.00;57.15
78016;BME280;67223;51.102;5.882;2023-01-23T22:35:39;103541.41;;;13.98;57.17
78016;BME280;67223;51.102;5.882;2023-01-23T22:38:05;103538.84;;;13.95;56.90
78016;BME280;67223;51.102;5.882;2023-01-23T22:40:31;103547.88;;;13.94;57.35
78016;BME280;67223;51.102;5.882;2023-01-23T22:42:57;103548.81;;;13.93;56.98
78016;BME280;67223;51.102;5.882;2023-01-23T22:45:22;103544.47;;;13.90;57.01
78016;BME280;67223;51.102;5.882;2023-01-23T22:47:48;103546.31;;;13.90;56.87
78016;BME280;67223;51.102;5.882;2023-01-23T22:50:14;103544.56;;;13.89;57.16
78016;BME280;67223;51.102;5.882;2023-01-23T22:52:40;103541.94;;;13.87;57.05
78016;BME280;67223;51.102;5.882;2023-01-23T22:55:07;103555.44;;;13.86;57.20
78016;BME280;67223;51.102;5.882;2023-01-23T22:57:32;103549.22;;;13.85;56.90
78016;BME280;67223;51.102;5.882;2023-01-23T22:59:58;103557.44;;;13.82;57.21
78016;BME280;67223;51.102;5.882;2023-01-23T23:02:23;103555.63;;;13.83;57.15
78016;BME280;67223;51.102;5.882;2023-01-23T23:04:49;103553.88;;;13.82;57.06
78016;BME280;67223;51.102;5.882;2023-01-23T23:07:16;103557.50;;;13.80;57.13
78016;BME280;67223;51.102;5.882;2023-01-23T23:09:42;103551.38;;;13.78;56.98
78016;BME280;67223;51.102;5.882;2023-01-23T23:12:08;103553.19;;;13.78;57.07
78016;BME280;67223;51.102;5.882;2023-01-23T23:14:35;103548.81;;;13.75;57.06
78016;BME280;67223;51.102;5.882;2023-01-23T23:17:01;103547.09;;;13.74;57.05
78016;BME280;67223;51.102;5.882;2023-01-23T23:19:26;103545.38;;;13.73;57.00
78016;BME280;67223;51.102;5.882;2023-01-23T23:21:52;103533.75;;;13.73;56.90
78016;BME280;67223;51.102;5.882;2023-01-23T23:24:17;103538.25;;;13.72;56.65
78016;BME280;67223;51.102;5.882;2023-01-23T23:26:43;103535.63;;;13.71;56.97
78016;BME280;67223;51.102;5.882;2023-01-23T23:29:10;103538.41;;;13.69;57.29
78016;BME280;67223;51.102;5.882;2023-01-23T23:31:35;103545.50;;;13.70;57.07
78016;BME280;67223;51.102;5.882;2023-01-23T23:34:01;103542.91;;;13.69;56.92
78016;BME280;67223;51.102;5.882;2023-01-23T23:36:27;103547.41;;;13.68;57.00
78016;BME280;67223;51.102;5.882;2023-01-23T23:38:53;103549.28;;;13.66;56.64
78016;BME280;67223;51.102;5.882;2023-01-23T23:41:18;103553.78;;;13.66;56.64
78016;BME280;67223;51.102;5.882;2023-01-23T23:43:44;103547.56;;;13.65;56.88
78016;BME280;67223;51.102;5.882;2023-01-23T23:46:11;103552.06;;;13.65;56.52
78016;BME280;67223;51.102;5.882;2023-01-23T23:48:37;103544.97;;;13.64;56.53
78016;BME280;67223;51.102;5.882;2023-01-23T23:51:08;103543.28;;;13.61;56.91
78016;BME280;67223;51.102;5.882;2023-01-23T23:53:35;103538.88;;;13.60;56.89
78016;BME280;67223;51.102;5.882;2023-01-23T23:56:01;103547.91;;;13.59;56.53
78016;BME280;67223;51.102;5.882;2023-01-23T23:58:26;103545.22;;;13.59;56.64
